createdAt,value
2022-08-26T00:01:52.211Z,8.00
2022-08-26T00:04:18.966Z,7.20
2022-08-26T00:06:46.062Z,8.00
2022-08-26T00:09:16.238Z,8.02
2022-08-26T00:11:44.433Z,8.25
2022-08-26T00:14:11.749Z,8.95
2022-08-26T00:16:40.887Z,8.18
2022-08-26T00:19:08.274Z,9.35
2022-08-26T00:21:35.543Z,8.45
2022-08-26T00:24:04.457Z,8.60
2022-08-26T00:26:30.949Z,8.77
2022-08-26T00:28:57.346Z,8.05
2022-08-26T00:31:23.785Z,7.78
2022-08-26T00:33:50.292Z,8.43
2022-08-26T00:36:20.224Z,8.95
2022-08-26T00:38:47.488Z,8.53
2022-08-26T00:41:13.986Z,8.15
2022-08-26T00:43:47.511Z,7.70
2022-08-26T00:46:19.574Z,8.88
2022-08-26T00:48:49.982Z,9.23
2022-08-26T00:51:20.505Z,8.25
2022-08-26T00:53:57.630Z,7.72
2022-08-26T00:56:56.514Z,8.32
2022-08-26T00:59:24.246Z,8.63
2022-08-26T01:01:51.604Z,7.43
2022-08-26T01:04:22.457Z,8.23
2022-08-26T01:06:52.794Z,8.52
2022-08-26T01:09:21.157Z,7.80
2022-08-26T01:11:50.934Z,8.73
2022-08-26T01:14:19.268Z,8.45
2022-08-26T01:16:47.752Z,8.85
2022-08-26T01:19:26.785Z,9.15
2022-08-26T01:22:01.600Z,8.95
2022-08-26T01:24:30.118Z,9.32
2022-08-26T01:27:01.510Z,8.45
2022-08-26T01:31:57.564Z,8.15
2022-08-26T01:34:27.594Z,8.13
2022-08-26T01:37:02.780Z,8.60
2022-08-26T01:39:31.921Z,8.15
2022-08-26T01:42:03.123Z,8.70
2022-08-26T01:44:36.262Z,7.72
2022-08-26T01:47:06.410Z,10.10
2022-08-26T01:49:35.340Z,7.68
2022-08-26T01:52:03.415Z,8.45
2022-08-26T01:54:31.528Z,8.10
2022-08-26T01:57:00.244Z,8.85
2022-08-26T01:59:27.039Z,7.82
2022-08-26T02:01:53.730Z,8.75
2022-08-26T02:04:48.686Z,8.48
2022-08-26T02:07:20.486Z,7.65
2022-08-26T02:09:48.422Z,8.48
2022-08-26T02:12:18.115Z,8.73
2022-08-26T02:14:50.200Z,8.45
2022-08-26T02:17:21.652Z,8.18
2022-08-26T02:19:50.420Z,8.02
2022-08-26T02:22:20.799Z,8.02
2022-08-26T02:24:54.945Z,8.38
2022-08-26T02:27:32.300Z,8.40
2022-08-26T02:30:26.311Z,8.63
2022-08-26T02:32:55.271Z,8.30
2022-08-26T02:35:23.876Z,8.50
2022-08-26T02:37:52.430Z,7.93
2022-08-26T02:40:23.507Z,9.10
2022-08-26T02:45:23.101Z,8.75
2022-08-26T02:47:51.024Z,9.50
2022-08-26T02:50:17.578Z,8.70
2022-08-26T02:52:44.108Z,9.25
2022-08-26T02:55:10.648Z,8.88
2022-08-26T02:57:37.382Z,9.05
2022-08-26T03:00:08.470Z,8.88
2022-08-26T03:02:34.901Z,8.98
2022-08-26T03:05:02.229Z,9.20
2022-08-26T03:07:30.131Z,9.73
2022-08-26T03:09:57.212Z,9.25
2022-08-26T03:12:23.921Z,10.05
2022-08-26T03:14:52.118Z,9.25
2022-08-26T03:17:18.685Z,10.07
2022-08-26T03:19:45.108Z,9.82
2022-08-26T03:22:11.952Z,9.65
2022-08-26T03:24:41.046Z,8.68
2022-08-26T03:27:10.860Z,8.77
2022-08-26T03:29:56.820Z,9.43
2022-08-26T03:32:23.740Z,9.95
2022-08-26T03:34:53.492Z,9.35
2022-08-26T03:37:20.793Z,8.98
2022-08-26T03:39:47.866Z,8.55
2022-08-26T03:42:15.009Z,9.13
2022-08-26T03:44:42.103Z,8.55
2022-08-26T03:47:09.390Z,8.90
2022-08-26T03:49:36.092Z,9.30
2022-08-26T03:52:03.984Z,8.90
2022-08-26T03:54:30.454Z,9.07
2022-08-26T03:56:56.821Z,9.45
2022-08-26T03:59:23.404Z,8.93
2022-08-26T04:01:51.246Z,9.25
2022-08-26T04:04:18.125Z,10.23
2022-08-26T04:06:50.071Z,9.70
2022-08-26T04:09:20.907Z,9.95
2022-08-26T04:11:50.653Z,9.55
2022-08-26T04:14:20.671Z,9.40
2022-08-26T04:16:47.756Z,9.07
2022-08-26T04:19:15.568Z,9.50
2022-08-26T04:21:42.321Z,9.75
2022-08-26T04:24:11.883Z,9.63
2022-08-26T04:26:42.878Z,9.15
2022-08-26T04:29:14.489Z,9.32
2022-08-26T04:31:41.215Z,10.05
2022-08-26T04:34:08.056Z,10.45
2022-08-26T04:36:37.663Z,10.45
2022-08-26T04:39:05.142Z,10.65
2022-08-26T04:41:31.876Z,10.15
2022-08-26T04:43:58.556Z,9.68
2022-08-26T04:46:25.667Z,11.63
2022-08-26T04:48:53.593Z,10.27
2022-08-26T04:51:23.632Z,11.55
2022-08-26T04:53:50.020Z,11.25
2022-08-26T04:56:16.647Z,11.45
2022-08-26T04:58:43.304Z,11.63
2022-08-26T05:01:09.672Z,11.57
2022-08-26T05:03:36.931Z,10.55
2022-08-26T05:06:05.172Z,11.57
2022-08-26T05:08:31.628Z,11.27
2022-08-26T05:10:58.178Z,11.30
2022-08-26T05:13:27.247Z,10.85
2022-08-26T05:15:54.616Z,11.30
2022-08-26T05:18:29.904Z,11.98
2022-08-26T05:20:57.352Z,10.73
2022-08-26T05:23:24.593Z,13.82
2022-08-26T05:25:58.399Z,12.05
2022-08-26T05:28:26.927Z,12.43
2022-08-26T05:30:54.822Z,12.43
2022-08-26T05:33:21.918Z,13.25
2022-08-26T05:35:48.478Z,11.77
2022-08-26T05:38:17.341Z,11.75
2022-08-26T05:40:48.981Z,11.63
2022-08-26T05:43:20.030Z,13.00
2022-08-26T05:45:49.720Z,14.23
2022-08-26T05:48:18.720Z,13.27
2022-08-26T05:50:52.321Z,14.88
2022-08-26T05:53:20.864Z,16.55
2022-08-26T05:55:52.343Z,14.75
2022-08-26T05:58:21.412Z,14.02
2022-08-26T06:00:59.850Z,13.65
2022-08-26T06:03:26.522Z,17.20
2022-08-26T06:05:53.391Z,13.43
2022-08-26T06:08:21.127Z,15.07
2022-08-26T06:10:51.330Z,13.85
2022-08-26T06:13:23.915Z,14.40
2022-08-26T06:15:51.522Z,13.65
2022-08-26T06:18:21.862Z,15.55
2022-08-26T06:20:57.174Z,15.32
2022-08-26T06:23:44.176Z,16.65
2022-08-26T06:26:11.839Z,16.63
2022-08-26T06:28:38.365Z,20.70
2022-08-26T06:31:06.030Z,21.83
2022-08-26T06:33:33.144Z,20.88
2022-08-26T06:36:00.997Z,23.73
2022-08-26T06:38:27.576Z,25.60
2022-08-26T06:40:59.708Z,34.55
2022-08-26T06:43:28.029Z,47.08
2022-08-26T06:46:07.586Z,44.38
2022-08-26T06:48:36.260Z,49.90
2022-08-26T06:51:05.983Z,62.00
2022-08-26T06:53:32.608Z,70.82
2022-08-26T06:55:58.989Z,54.17
2022-08-26T06:58:25.512Z,58.00
2022-08-26T07:00:52.179Z,68.68
2022-08-26T07:03:18.918Z,53.35
2022-08-26T07:05:45.379Z,54.53
2022-08-26T07:08:11.851Z,56.05
2022-08-26T07:10:38.836Z,61.75
2022-08-26T07:13:05.993Z,59.63
2022-08-26T07:15:36.090Z,66.05
2022-08-26T07:18:02.943Z,66.53
2022-08-26T07:20:29.435Z,61.10
2022-08-26T07:22:55.992Z,60.17
2022-08-26T07:25:22.428Z,51.58
2022-08-26T07:27:54.514Z,51.70
2022-08-26T07:30:21.087Z,47.83
2022-08-26T07:32:48.173Z,56.15
2022-08-26T07:35:14.739Z,50.70
2022-08-26T07:37:42.153Z,58.50
2022-08-26T07:40:09.441Z,56.63
2022-08-26T07:42:35.882Z,55.08
2022-08-26T07:45:02.317Z,53.88
2022-08-26T07:47:28.964Z,61.47
2022-08-26T07:49:57.248Z,53.38
2022-08-26T07:52:29.177Z,55.17
2022-08-26T07:54:58.020Z,55.33
2022-08-26T07:57:26.146Z,62.47
2022-08-26T07:59:55.132Z,53.67
2022-08-26T08:02:22.983Z,59.55
2022-08-26T08:04:49.593Z,51.58
2022-08-26T08:07:16.496Z,61.90
2022-08-26T08:09:42.968Z,60.42
2022-08-26T08:12:09.443Z,54.00
2022-08-26T08:14:40.733Z,52.85
2022-08-26T08:17:08.225Z,58.05
2022-08-26T08:19:36.762Z,56.20
2022-08-26T08:22:17.500Z,53.63
2022-08-26T08:24:44.731Z,48.72
2022-08-26T08:27:11.166Z,51.08
2022-08-26T08:29:38.569Z,50.78
2022-08-26T08:32:05.553Z,51.17
2022-08-26T08:34:37.906Z,49.78
2022-08-26T08:37:08.591Z,44.83
2022-08-26T08:39:36.990Z,47.90
2022-08-26T08:42:41.904Z,47.92
2022-08-26T08:45:11.898Z,43.88
2022-08-26T08:47:51.674Z,47.00
2022-08-26T08:50:30.334Z,49.60
2022-08-26T08:53:31.640Z,53.22
2022-08-26T08:56:24.335Z,45.70
2022-08-26T08:59:17.785Z,44.88
2022-08-26T09:02:03.340Z,51.08
2022-08-26T09:04:46.796Z,44.95
2022-08-26T09:07:18.539Z,47.03
2022-08-26T09:09:50.571Z,42.90
2022-08-26T09:12:28.334Z,45.22
2022-08-26T09:15:20.320Z,47.22
2022-08-26T09:18:00.104Z,46.65
2022-08-26T09:20:41.735Z,42.90
2022-08-26T09:23:12.420Z,43.97
2022-08-26T09:25:51.584Z,49.55
2022-08-26T09:28:22.217Z,47.70
2022-08-26T09:31:01.716Z,44.20
2022-08-26T09:33:32.707Z,52.67
2022-08-26T09:36:18.702Z,51.38
2022-08-26T09:38:45.952Z,46.17
2022-08-26T09:41:31.803Z,49.47
2022-08-26T09:44:04.086Z,49.03
2022-08-26T09:46:32.018Z,50.13
2022-08-26T09:49:32.692Z,52.72
2022-08-26T09:52:20.463Z,50.45
2022-08-26T09:55:06.925Z,47.22
2022-08-26T09:57:46.510Z,47.38
2022-08-26T10:00:33.404Z,46.00
2022-08-26T10:03:02.774Z,45.80
2022-08-26T10:05:31.668Z,48.60
2022-08-26T10:07:59.571Z,44.00
2022-08-26T10:10:35.010Z,43.45
2022-08-26T10:13:29.585Z,44.15
2022-08-26T10:16:10.840Z,42.35
2022-08-26T10:18:43.458Z,44.45
2022-08-26T10:21:18.026Z,46.45
2022-08-26T10:23:51.435Z,44.50
2022-08-26T10:26:32.711Z,44.40
2022-08-26T10:29:08.774Z,43.83
2022-08-26T10:31:43.971Z,45.65
2022-08-26T10:34:12.518Z,45.03
2022-08-26T10:37:15.453Z,43.22
2022-08-26T10:40:02.548Z,43.03
2022-08-26T10:42:43.014Z,42.55
2022-08-26T10:45:14.985Z,44.42
2022-08-26T10:47:51.815Z,38.80
2022-08-26T10:50:19.739Z,40.42
2022-08-26T10:52:50.060Z,37.45
2022-08-26T10:55:24.244Z,38.65
2022-08-26T10:58:26.405Z,36.53
2022-08-26T11:01:23.064Z,36.75
2022-08-26T11:04:12.048Z,35.40
2022-08-26T11:06:39.158Z,31.77
2022-08-26T11:09:08.884Z,31.53
2022-08-26T11:11:41.115Z,30.90
2022-08-26T11:14:10.111Z,29.15
2022-08-26T11:16:52.531Z,29.15
2022-08-26T11:19:59.703Z,30.25
2022-08-26T11:22:38.036Z,28.52
2022-08-26T11:25:19.992Z,28.88
2022-08-26T11:27:50.626Z,28.20
2022-08-26T11:30:19.497Z,26.85
2022-08-26T11:32:52.262Z,26.65
2022-08-26T11:35:19.230Z,26.83
2022-08-26T11:37:48.279Z,26.48
2022-08-26T11:40:20.557Z,25.35
2022-08-26T11:42:55.477Z,25.05
2022-08-26T11:45:32.549Z,23.98
2022-08-26T11:47:58.944Z,22.95
2022-08-26T11:50:28.216Z,23.80
2022-08-26T11:53:04.134Z,23.70
2022-08-26T11:55:36.430Z,23.92
2022-08-26T11:58:05.729Z,24.15
2022-08-26T12:00:48.590Z,22.40
2022-08-26T12:03:19.244Z,22.80
2022-08-26T12:05:49.075Z,22.38
2022-08-26T12:08:21.524Z,21.53
2022-08-26T12:10:48.991Z,21.80
2022-08-26T12:13:23.821Z,23.00
2022-08-26T12:15:55.820Z,21.92
2022-08-26T12:18:29.150Z,19.45
2022-08-26T12:20:59.167Z,22.42
2022-08-26T12:23:41.314Z,21.92
2022-08-26T12:26:28.648Z,21.60
2022-08-26T12:29:02.231Z,21.98
2022-08-26T12:31:42.476Z,20.98
2022-08-26T12:34:18.045Z,21.60
2022-08-26T12:36:55.379Z,19.98
2022-08-26T12:39:30.218Z,19.20
2022-08-26T12:42:01.604Z,19.35
2022-08-26T12:44:53.774Z,20.17
2022-08-26T12:47:42.599Z,18.98
2022-08-26T12:50:20.591Z,18.73
2022-08-26T12:53:11.291Z,20.15
2022-08-26T12:58:16.358Z,19.88
2022-08-26T13:00:51.449Z,20.30
2022-08-26T13:03:45.260Z,20.50
2022-08-26T13:06:16.119Z,20.63
2022-08-26T13:08:48.385Z,22.63
2022-08-26T13:11:20.302Z,22.58
2022-08-26T13:13:53.528Z,20.98
2022-08-26T13:16:21.609Z,23.02
2022-08-26T13:18:51.387Z,24.50
2022-08-26T13:21:21.205Z,25.80
2022-08-26T13:23:49.901Z,24.25
2022-08-26T13:26:16.658Z,22.45
2022-08-26T13:28:43.232Z,24.27
2022-08-26T13:31:14.544Z,25.58
2022-08-26T13:33:43.871Z,25.67
2022-08-26T13:36:12.060Z,25.10
2022-08-26T13:38:38.749Z,25.27
2022-08-26T13:41:05.828Z,24.98
2022-08-26T13:43:32.913Z,23.20
2022-08-26T13:46:01.713Z,23.80
2022-08-26T13:48:28.334Z,23.08
2022-08-26T13:50:54.722Z,23.05
2022-08-26T13:53:21.348Z,22.60
2022-08-26T13:55:47.903Z,21.33
2022-08-26T13:58:14.883Z,22.15
2022-08-26T14:00:41.742Z,21.20
2022-08-26T14:03:13.248Z,20.45
2022-08-26T14:05:40.698Z,19.85
2022-08-26T14:08:07.988Z,17.27
2022-08-26T14:10:35.083Z,18.17
2022-08-26T14:13:01.692Z,17.27
2022-08-26T14:15:28.955Z,17.10
2022-08-26T14:17:55.806Z,16.10
2022-08-26T14:20:29.004Z,17.27
2022-08-26T14:23:13.038Z,14.80
2022-08-26T14:25:42.242Z,15.05
2022-08-26T14:28:08.721Z,14.18
2022-08-26T14:30:36.903Z,14.57
2022-08-26T14:33:03.337Z,13.23
2022-08-26T14:35:30.571Z,13.30
2022-08-26T14:37:57.828Z,11.68
2022-08-26T14:40:29.261Z,12.65
2022-08-26T14:42:55.890Z,12.25
2022-08-26T14:45:27.294Z,13.07
2022-08-26T14:47:56.426Z,12.30
2022-08-26T14:50:25.812Z,11.52
2022-08-26T14:53:10.803Z,11.43
2022-08-26T14:55:40.318Z,11.52
2022-08-26T14:58:06.780Z,12.50
2022-08-26T15:00:33.272Z,13.32
2022-08-26T15:02:59.781Z,14.40
2022-08-26T15:05:26.342Z,14.48
2022-08-26T15:07:52.816Z,16.75
2022-08-26T15:10:19.603Z,17.98
2022-08-26T15:12:46.469Z,19.02
2022-08-26T15:15:16.160Z,20.08
2022-08-26T15:17:43.164Z,21.02
2022-08-26T15:20:11.768Z,23.67
2022-08-26T15:22:39.534Z,20.65
2022-08-26T15:25:06.464Z,21.73
2022-08-26T15:27:33.118Z,21.88
2022-08-26T15:30:06.328Z,22.30
2022-08-26T15:32:32.779Z,23.20
2022-08-26T15:34:59.221Z,22.35
2022-08-26T15:37:25.600Z,25.60
2022-08-26T15:39:52.852Z,28.05
2022-08-26T15:42:20.807Z,27.17
2022-08-26T15:44:47.277Z,25.20
2022-08-26T15:47:13.989Z,23.90
2022-08-26T15:49:41.019Z,23.52
2022-08-26T15:52:07.768Z,23.67
2022-08-26T15:54:35.057Z,21.65
2022-08-26T15:57:02.543Z,22.55
2022-08-26T15:59:32.284Z,23.02
2022-08-26T16:01:59.975Z,22.00
2022-08-26T16:04:26.690Z,22.92
2022-08-26T16:06:53.842Z,21.60
2022-08-26T16:09:26.803Z,21.67
2022-08-26T16:11:54.971Z,19.63
2022-08-26T16:14:22.336Z,17.52
2022-08-26T16:16:49.080Z,16.45
2022-08-26T16:19:15.718Z,15.75
2022-08-26T16:21:42.166Z,16.60
2022-08-26T16:24:08.958Z,15.18
2022-08-26T16:26:37.930Z,17.05
2022-08-26T16:29:08.822Z,17.77
2022-08-26T16:31:35.503Z,17.60
2022-08-26T16:34:01.967Z,18.50
2022-08-26T16:36:28.491Z,20.73
2022-08-26T16:38:56.207Z,19.27
2022-08-26T16:41:24.494Z,18.23
2022-08-26T16:43:50.890Z,19.25
2022-08-26T16:46:18.341Z,17.73
2022-08-26T16:48:45.432Z,18.75
2022-08-26T16:51:13.347Z,19.67
2022-08-26T16:53:39.844Z,19.10
2022-08-26T16:56:06.600Z,17.05
2022-08-26T16:58:32.980Z,18.17
2022-08-26T17:00:59.412Z,19.13
2022-08-26T17:03:25.856Z,19.95
2022-08-26T17:05:52.313Z,20.83
2022-08-26T17:08:24.323Z,22.17
2022-08-26T17:10:55.387Z,23.02
2022-08-26T17:13:31.619Z,20.83
2022-08-26T17:16:04.154Z,21.52
2022-08-26T17:18:30.899Z,23.00
2022-08-26T17:21:01.739Z,21.73
2022-08-26T17:25:54.512Z,20.77
2022-08-26T17:28:20.915Z,21.38
2022-08-26T17:30:47.362Z,21.70
2022-08-26T17:33:13.806Z,21.05
2022-08-26T17:35:43.561Z,20.23
2022-08-26T17:38:10.151Z,19.58
2022-08-26T17:40:36.824Z,19.10
2022-08-26T17:43:03.367Z,19.08
2022-08-26T17:45:29.769Z,18.83
2022-08-26T17:47:57.049Z,18.88
2022-08-26T17:50:23.674Z,19.08
2022-08-26T17:52:50.516Z,17.58
2022-08-26T17:55:18.006Z,16.92
2022-08-26T17:57:53.163Z,17.10
2022-08-26T18:00:23.434Z,17.02
2022-08-26T18:02:49.836Z,15.45
2022-08-26T18:05:17.388Z,15.93
2022-08-26T18:07:44.712Z,15.15
2022-08-26T18:10:14.559Z,15.20
2022-08-26T18:12:41.489Z,15.75
2022-08-26T18:15:10.161Z,15.00
2022-08-26T18:17:37.624Z,14.35
2022-08-26T18:20:04.364Z,14.25
2022-08-26T18:22:30.762Z,14.15
2022-08-26T18:24:58.748Z,13.45
2022-08-26T18:27:26.266Z,12.88
2022-08-26T18:29:52.998Z,12.88
2022-08-26T18:32:19.354Z,13.18
2022-08-26T18:34:45.733Z,12.07
2022-08-26T18:37:14.275Z,12.60
2022-08-26T18:39:41.553Z,12.07
2022-08-26T18:42:08.767Z,13.27
2022-08-26T18:44:35.284Z,12.13
2022-08-26T18:47:01.704Z,12.73
2022-08-26T18:49:28.737Z,11.80
2022-08-26T18:51:55.209Z,12.05
2022-08-26T18:54:21.936Z,11.70
2022-08-26T18:56:48.563Z,11.90
2022-08-26T18:59:14.990Z,11.25
2022-08-26T19:01:42.474Z,10.73
2022-08-26T19:04:15.772Z,11.93
2022-08-26T19:06:43.071Z,11.43
2022-08-26T19:09:11.759Z,11.80
2022-08-26T19:11:42.826Z,11.23
2022-08-26T19:14:13.438Z,11.48
2022-08-26T19:16:42.301Z,10.27
2022-08-26T19:19:08.976Z,11.02
2022-08-26T19:21:37.098Z,10.45
2022-08-26T19:24:06.893Z,11.02
2022-08-26T19:26:33.408Z,11.38
2022-08-26T19:29:00.194Z,11.60
2022-08-26T19:31:27.507Z,10.80
2022-08-26T19:33:54.040Z,10.85
2022-08-26T19:36:23.493Z,11.25
2022-08-26T19:38:50.194Z,10.23
2022-08-26T19:41:20.272Z,10.85
2022-08-26T19:43:47.159Z,10.37
2022-08-26T19:46:22.973Z,10.38
2022-08-26T19:48:54.041Z,11.38
2022-08-26T19:51:28.546Z,10.57
2022-08-26T19:53:57.553Z,11.10
2022-08-26T19:56:24.291Z,10.65
2022-08-26T19:58:51.061Z,11.48
2022-08-26T20:01:18.375Z,10.55
2022-08-26T20:03:45.057Z,10.93
2022-08-26T20:06:13.244Z,11.45
2022-08-26T20:08:41.250Z,11.45
2022-08-26T20:11:11.802Z,12.00
2022-08-26T20:13:39.806Z,10.27
2022-08-26T20:16:06.472Z,11.88
2022-08-26T20:18:51.971Z,11.05
2022-08-26T20:21:27.596Z,11.73
2022-08-26T20:23:57.893Z,9.95
2022-08-26T20:26:25.126Z,10.35
2022-08-26T20:28:51.598Z,10.52
2022-08-26T20:31:19.031Z,11.30
2022-08-26T20:33:46.451Z,11.27
2022-08-26T20:36:14.733Z,9.60
2022-08-26T20:38:41.263Z,10.15
2022-08-26T20:41:07.683Z,10.80
2022-08-26T20:43:34.101Z,9.68
2022-08-26T20:46:00.839Z,10.65
2022-08-26T20:48:27.498Z,10.35
2022-08-26T20:51:01.048Z,9.38
2022-08-26T20:53:29.361Z,10.40
2022-08-26T20:56:00.483Z,9.93
2022-08-26T20:58:26.908Z,10.00
2022-08-26T21:00:53.518Z,9.52
2022-08-26T21:03:19.959Z,10.05
2022-08-26T21:05:47.020Z,9.40
2022-08-26T21:08:13.384Z,10.25
2022-08-26T21:10:39.928Z,9.82
2022-08-26T21:13:07.254Z,11.00
2022-08-26T21:15:35.074Z,9.25
2022-08-26T21:18:01.564Z,10.02
2022-08-26T21:20:27.956Z,10.25
2022-08-26T21:22:54.366Z,10.02
2022-08-26T21:25:20.902Z,10.57
2022-08-26T21:27:47.428Z,9.45
2022-08-26T21:30:15.443Z,9.10
2022-08-26T21:32:42.092Z,9.32
2022-08-26T21:35:09.171Z,8.82
2022-08-26T21:37:35.602Z,10.00
2022-08-26T21:40:03.739Z,10.43
2022-08-26T21:42:33.310Z,9.85
2022-08-26T21:45:00.399Z,9.48
2022-08-26T21:47:27.515Z,9.63
2022-08-26T21:49:54.142Z,8.60
2022-08-26T21:52:21.332Z,10.27
2022-08-26T21:54:49.387Z,9.90
2022-08-26T21:57:16.943Z,8.70
2022-08-26T21:59:43.307Z,8.65
2022-08-26T22:02:10.811Z,9.95
2022-08-26T22:04:37.304Z,9.05
2022-08-26T22:07:04.194Z,9.30
2022-08-26T22:09:31.534Z,8.82
2022-08-26T22:11:58.997Z,8.93
2022-08-26T22:14:30.377Z,8.98
2022-08-26T22:16:58.805Z,9.25
2022-08-26T22:19:26.276Z,10.20
2022-08-26T22:21:54.467Z,9.20
2022-08-26T22:24:23.876Z,9.48
2022-08-26T22:26:51.036Z,8.90
2022-08-26T22:29:18.691Z,9.40
2022-08-26T22:31:45.829Z,9.07
2022-08-26T22:34:19.413Z,9.07
2022-08-26T22:36:47.995Z,9.75
2022-08-26T22:39:18.420Z,9.85
2022-08-26T22:41:48.351Z,9.45
2022-08-26T22:44:16.227Z,8.52
2022-08-26T22:46:43.744Z,9.20
2022-08-26T22:49:15.741Z,9.20
2022-08-26T22:51:43.889Z,9.73
2022-08-26T22:54:10.873Z,9.55
2022-08-26T22:56:40.189Z,9.65
2022-08-26T22:59:07.923Z,9.18
2022-08-26T23:01:38.105Z,9.60
2022-08-26T23:04:06.237Z,8.60
2022-08-26T23:06:35.591Z,8.43
2022-08-26T23:09:02.026Z,9.88
2022-08-26T23:11:28.475Z,10.05
2022-08-26T23:13:55.122Z,10.07
2022-08-26T23:16:21.597Z,9.15
2022-08-26T23:18:48.094Z,8.98
2022-08-26T23:21:15.117Z,9.27
2022-08-26T23:23:41.835Z,10.35
2022-08-26T23:26:08.491Z,8.98
2022-08-26T23:28:36.077Z,8.35
2022-08-26T23:31:02.526Z,8.88
2022-08-26T23:33:48.906Z,9.07
2022-08-26T23:36:18.058Z,8.10
2022-08-26T23:38:48.562Z,8.05
2022-08-26T23:41:19.032Z,8.70
2022-08-26T23:43:45.469Z,9.23
2022-08-26T23:46:12.074Z,8.60
2022-08-26T23:48:38.565Z,10.18
2022-08-26T23:51:23.671Z,9.77
2022-08-26T23:53:50.559Z,8.85
2022-08-26T23:56:17.591Z,8.77
2022-08-26T23:58:44.481Z,9.27
